WEATHER/FLIGHT PLANNING

Hattiesburg Radar

 

 

 

 

Weather Links

Flight Planning Links

 

METAR

2019/11/23 01:53 KHBG 230153Z AUTO 16005KT 10SM -RA FEW024 SCT043 BKN120 20/18 A2997 RMK AO2 RAB46 SLP147 P0000 T02000178

TAF

2019/11/23 00:18 TAF KHBG 230017Z 2300/2324 20009KT P6SM BKN100 FM230400 20005KT 6SM -RA BR SCT025 OVC050 FM230900 23005KT 5SM -RA BR SCT005 OVC015 FM231400 27005KT 6SM -RA BR OVC008